Time,TemperatureF,DewpointF,PressureIn,WindDirection,WindDirectionDegrees,WindSpeedMPH,WindSpeedGustMPH,Humidity,HourlyPrecipIn,Conditions,Clouds,dailyrainin,SolarRadiationWatts/m^2,SoftwareType,DateUTC
2013-05-25 00:01:00,40.0,39.0,-100.00,SSW,195,5.0,10.0,96,0.00,,,0.00,0.000000,,2013-05-25 07:01:00,
2013-05-25 00:32:00,40.0,39.0,-100.00,South,175,3.0,8.0,96,0.00,,,0.00,0.000000,,2013-05-25 07:32:00,
2013-05-25 00:42:00,40.0,39.0,-100.00,South,175,3.0,8.0,96,0.00,,,0.00,0.000000,,2013-05-25 07:42:00,
2013-05-25 00:52:00,40.0,39.0,-100.00,South,175,3.0,8.0,96,0.00,,,0.00,0.000000,,2013-05-25 07:52:00,
2013-05-25 01:02:00,40.0,39.0,-100.00,South,175,3.0,8.0,96,0.00,,,0.00,0.000000,,2013-05-25 08:02:00,
2013-05-25 01:32:00,40.0,40.0,-100.00,SSE,161,5.0,10.0,99,0.00,,,0.00,0.000000,,2013-05-25 08:32:00,
2013-05-25 01:42:00,40.0,40.0,-100.00,SSE,161,5.0,10.0,99,0.00,,,0.00,0.000000,,2013-05-25 08:42:00,
2013-05-25 01:52:00,40.0,40.0,-100.00,SSE,161,5.0,10.0,99,0.00,,,0.00,0.000000,,2013-05-25 08:52:00,
2013-05-25 02:01:00,40.0,40.0,-100.00,SSE,161,5.0,10.0,99,0.00,,,0.00,0.000000,,2013-05-25 09:01:00,
2013-05-25 02:33:00,38.0,38.0,-100.00,WNW,300,4.0,10.0,99,0.00,,,0.00,0.000000,,2013-05-25 09:33:00,
2013-05-25 02:43:00,38.0,38.0,-100.00,WNW,300,4.0,10.0,99,0.00,,,0.00,0.000000,,2013-05-25 09:43:00,
2013-05-25 02:53:00,38.0,38.0,-100.00,WNW,300,4.0,10.0,99,0.00,,,0.00,0.000000,,2013-05-25 09:53:00,
2013-05-25 03:02:00,38.0,38.0,-100.00,WNW,300,4.0,10.0,99,0.00,,,0.00,0.000000,,2013-05-25 10:02:00,
2013-05-25 03:33:00,39.0,39.0,-100.00,South,169,5.0,9.0,99,0.00,,,0.00,0.000000,,2013-05-25 10:33:00,
2013-05-25 03:42:00,39.0,39.0,-100.00,South,169,5.0,9.0,99,0.00,,,0.00,0.000000,,2013-05-25 10:42:00,
2013-05-25 03:52:00,39.0,39.0,-100.00,South,169,5.0,9.0,99,0.00,,,0.00,0.000000,,2013-05-25 10:52:00,
2013-05-25 04:02:00,39.0,39.0,-100.00,South,169,5.0,9.0,99,0.00,,,0.00,0.000000,,2013-05-25 11:02:00,
2013-05-25 04:32:00,40.0,40.0,-100.00,SSE,155,3.0,9.0,99,0.00,,,0.00,0.000000,,2013-05-25 11:32:00,
2013-05-25 04:42:00,40.0,40.0,-100.00,SSE,155,3.0,9.0,99,0.00,,,0.00,0.000000,,2013-05-25 11:42:00,
2013-05-25 04:52:00,40.0,40.0,-100.00,SSE,155,3.0,9.0,99,0.00,,,0.00,0.000000,,2013-05-25 11:52:00,
2013-05-25 05:01:00,40.0,40.0,-100.00,SSE,155,3.0,9.0,99,0.00,,,0.00,0.000000,,2013-05-25 12:01:00,
2013-05-25 05:32:00,38.0,38.0,-100.00,SE,132,4.0,10.0,99,0.00,,,0.00,0.000000,,2013-05-25 12:32:00,
2013-05-25 05:42:00,38.0,38.0,-100.00,SE,132,4.0,10.0,99,0.00,,,0.00,0.000000,,2013-05-25 12:42:00,
2013-05-25 05:52:00,38.0,38.0,-100.00,SE,132,4.0,10.0,99,0.00,,,0.00,0.000000,,2013-05-25 12:52:00,
2013-05-25 06:02:00,38.0,38.0,-100.00,SE,132,4.0,10.0,99,0.00,,,0.00,0.000000,,2013-05-25 13:02:00,
2013-05-25 06:32:00,40.0,40.0,-100.00,SE,145,4.0,14.0,99,0.00,,,0.00,8.000000,,2013-05-25 13:32:00,
2013-05-25 06:42:00,40.0,40.0,-100.00,SE,145,4.0,14.0,99,0.00,,,0.00,8.000000,,2013-05-25 13:42:00,
2013-05-25 06:52:00,40.0,40.0,-100.00,SE,145,4.0,14.0,99,0.00,,,0.00,8.000000,,2013-05-25 13:52:00,
2013-05-25 07:02:00,40.0,40.0,-100.00,SE,145,4.0,14.0,99,0.00,,,0.00,8.000000,,2013-05-25 14:02:00,
2013-05-25 07:32:00,39.0,39.0,-100.00,SE,145,3.0,13.0,99,0.00,,,0.00,23.000000,,2013-05-25 14:32:00,
2013-05-25 07:42:00,39.0,39.0,-100.00,SE,145,3.0,13.0,99,0.00,,,0.00,23.000000,,2013-05-25 14:42:00,
2013-05-25 07:52:00,39.0,39.0,-100.00,SE,145,3.0,13.0,99,0.00,,,0.00,23.000000,,2013-05-25 14:52:00,
2013-05-25 08:01:00,39.0,39.0,-100.00,SE,145,3.0,13.0,99,0.00,,,0.00,23.000000,,2013-05-25 15:01:00,
2013-05-25 08:33:00,39.0,39.0,-100.00,SSE,151,5.0,12.0,99,0.00,,,0.00,62.000000,,2013-05-25 15:33:00,
2013-05-25 08:43:00,39.0,39.0,-100.00,SSE,151,5.0,12.0,99,0.00,,,0.00,62.000000,,2013-05-25 15:43:00,
2013-05-25 08:53:00,39.0,39.0,-100.00,SSE,151,5.0,12.0,99,0.00,,,0.00,62.000000,,2013-05-25 15:53:00,
2013-05-25 09:03:00,39.0,39.0,-100.00,SSE,151,5.0,12.0,99,0.00,,,0.00,62.000000,,2013-05-25 16:03:00,
2013-05-25 09:33:00,42.0,42.0,-100.00,SSE,159,5.0,12.0,99,0.00,,,0.00,151.000000,,2013-05-25 16:33:00,
2013-05-25 09:42:00,42.0,42.0,-100.00,SSE,159,5.0,12.0,99,0.00,,,0.00,151.000000,,2013-05-25 16:42:00,
2013-05-25 09:52:00,42.0,42.0,-100.00,SSE,159,5.0,12.0,99,0.00,,,0.00,151.000000,,2013-05-25 16:52:00,
2013-05-25 10:02:00,42.0,42.0,-100.00,SSE,159,5.0,12.0,99,0.00,,,0.00,151.000000,,2013-05-25 17:02:00,
2013-05-25 10:33:00,42.0,41.0,-100.00,SSW,203,2.0,11.0,95,0.00,,,0.00,218.000000,,2013-05-25 17:33:00,
2013-05-25 10:42:00,42.0,41.0,-100.00,SSW,203,2.0,11.0,95,0.00,,,0.00,218.000000,,2013-05-25 17:42:00,
2013-05-25 10:52:00,42.0,41.0,-100.00,SSW,203,2.0,11.0,95,0.00,,,0.00,218.000000,,2013-05-25 17:52:00,
2013-05-25 11:01:00,42.0,41.0,-100.00,SSW,203,2.0,11.0,95,0.00,,,0.00,218.000000,,2013-05-25 18:01:00,
2013-05-25 11:32:00,45.0,42.0,-100.00,ENE,71,0.0,9.0,90,0.00,,,0.00,224.000000,,2013-05-25 18:32:00,
2013-05-25 11:42:00,45.0,42.0,-100.00,ENE,71,0.0,9.0,90,0.00,,,0.00,224.000000,,2013-05-25 18:42:00,
2013-05-25 11:52:00,45.0,42.0,-100.00,ENE,71,0.0,9.0,90,0.00,,,0.00,224.000000,,2013-05-25 18:52:00,
2013-05-25 12:01:00,45.0,42.0,-100.00,ENE,71,0.0,9.0,90,0.00,,,0.00,224.000000,,2013-05-25 19:01:00,
2013-05-25 12:32:00,45.0,44.0,-100.00,SW,223,1.0,9.0,95,0.02,,,0.02,198.000000,,2013-05-25 19:32:00,
2013-05-25 12:42:00,45.0,44.0,-100.00,SW,223,1.0,9.0,95,0.02,,,0.02,198.000000,,2013-05-25 19:42:00,
2013-05-25 12:52:00,45.0,44.0,-100.00,SW,223,1.0,9.0,95,0.02,,,0.02,198.000000,,2013-05-25 19:52:00,
2013-05-25 13:02:00,45.0,44.0,-100.00,SW,223,1.0,9.0,95,0.02,,,0.02,198.000000,,2013-05-25 20:02:00,
2013-05-25 13:32:00,43.0,43.0,-100.00,WSW,242,0.0,8.0,99,0.01,,,0.03,138.000000,,2013-05-25 20:32:00,
2013-05-25 13:42:00,43.0,43.0,-100.00,WSW,242,0.0,8.0,99,0.01,,,0.03,138.000000,,2013-05-25 20:42:00,
2013-05-25 13:52:00,43.0,43.0,-100.00,WSW,242,0.0,8.0,99,0.01,,,0.03,138.000000,,2013-05-25 20:52:00,
2013-05-25 14:01:00,43.0,43.0,-100.00,WSW,242,0.0,8.0,99,0.01,,,0.03,138.000000,,2013-05-25 21:01:00,
2013-05-25 14:33:00,45.0,43.0,-100.00,West,264,0.0,8.0,92,0.01,,,0.04,285.000000,,2013-05-25 21:33:00,
2013-05-25 14:43:00,45.0,43.0,-100.00,West,264,0.0,8.0,92,0.01,,,0.04,285.000000,,2013-05-25 21:43:00,
2013-05-25 14:53:00,45.0,43.0,-100.00,West,264,0.0,8.0,92,0.01,,,0.04,285.000000,,2013-05-25 21:53:00,
2013-05-25 15:02:00,45.0,43.0,-100.00,West,264,0.0,8.0,92,0.01,,,0.04,285.000000,,2013-05-25 22:02:00,
2013-05-25 15:33:00,50.0,44.0,-100.00,WNW,285,4.0,11.0,80,0.00,,,0.04,497.000000,,2013-05-25 22:33:00,
2013-05-25 15:42:00,50.0,44.0,-100.00,WNW,285,4.0,11.0,80,0.00,,,0.04,497.000000,,2013-05-25 22:42:00,
2013-05-25 15:52:00,50.0,44.0,-100.00,WNW,285,4.0,11.0,80,0.00,,,0.04,497.000000,,2013-05-25 22:52:00,
2013-05-25 16:02:00,50.0,44.0,-100.00,WNW,285,4.0,11.0,80,0.00,,,0.04,497.000000,,2013-05-25 23:02:00,
2013-05-25 16:32:00,51.0,45.0,-100.00,North,1,0.0,9.0,81,0.00,,,0.04,311.000000,,2013-05-25 23:32:00,
2013-05-25 16:42:00,51.0,45.0,-100.00,North,1,0.0,9.0,81,0.00,,,0.04,311.000000,,2013-05-25 23:42:00,
2013-05-25 16:52:00,51.0,45.0,-100.00,North,1,0.0,9.0,81,0.00,,,0.04,311.000000,,2013-05-25 23:52:00,
2013-05-25 17:01:00,51.0,45.0,-100.00,North,1,0.0,9.0,81,0.00,,,0.04,311.000000,,2013-05-26 00:01:00,
2013-05-25 18:32:00,47.0,44.0,-100.00,SSE,150,0.0,6.0,90,-99.99,,,0.04,207.000000,,2013-05-26 01:32:00,
2013-05-25 18:42:00,47.0,44.0,-100.00,SSE,150,0.0,6.0,90,-99.99,,,0.04,207.000000,,2013-05-26 01:42:00,
2013-05-25 18:52:00,47.0,44.0,-100.00,SSE,150,0.0,6.0,90,-99.99,,,0.04,207.000000,,2013-05-26 01:52:00,
2013-05-25 19:02:00,47.0,44.0,-100.00,SSE,150,0.0,6.0,90,-99.99,,,0.04,207.000000,,2013-05-26 02:02:00,
2013-05-25 19:32:00,44.0,43.0,-100.00,NW,316,0.0,6.0,95,0.00,,,0.04,60.000000,,2013-05-26 02:32:00,
2013-05-25 19:42:00,44.0,43.0,-100.00,NW,316,0.0,6.0,95,0.00,,,0.04,60.000000,,2013-05-26 02:42:00,
2013-05-25 19:52:00,44.0,43.0,-100.00,NW,316,0.0,6.0,95,0.00,,,0.04,60.000000,,2013-05-26 02:52:00,
2013-05-25 20:01:00,44.0,43.0,-100.00,NW,316,0.0,6.0,95,0.00,,,0.04,60.000000,,2013-05-26 03:01:00,
2013-05-25 20:33:00,42.0,40.0,-100.00,West,270,1.0,5.0,91,0.00,,,0.04,40.000000,,2013-05-26 03:33:00,
2013-05-25 20:43:00,42.0,40.0,-100.00,West,270,1.0,5.0,91,0.00,,,0.04,40.000000,,2013-05-26 03:43:00,
2013-05-25 20:53:00,42.0,40.0,-100.00,West,270,1.0,5.0,91,0.00,,,0.04,40.000000,,2013-05-26 03:53:00,
2013-05-25 21:02:00,42.0,40.0,-100.00,West,270,1.0,5.0,91,0.00,,,0.04,40.000000,,2013-05-26 04:02:00,
2013-05-25 21:33:00,42.0,42.0,-100.00,ESE,106,0.0,3.0,99,0.00,,,0.04,10.000000,,2013-05-26 04:33:00,
2013-05-25 21:42:00,42.0,42.0,-100.00,ESE,106,0.0,3.0,99,0.00,,,0.04,10.000000,,2013-05-26 04:42:00,
2013-05-25 21:52:00,42.0,42.0,-100.00,ESE,106,0.0,3.0,99,0.00,,,0.04,10.000000,,2013-05-26 04:52:00,
2013-05-25 22:02:00,42.0,42.0,-100.00,ESE,106,0.0,3.0,99,0.00,,,0.04,10.000000,,2013-05-26 05:02:00,
2013-05-25 22:32:00,40.0,40.0,-100.00,SSE,166,0.0,4.0,99,0.00,,,0.04,0.000000,,2013-05-26 05:32:00,
2013-05-25 22:42:00,40.0,40.0,-100.00,SSE,166,0.0,4.0,99,0.00,,,0.04,0.000000,,2013-05-26 05:42:00,
2013-05-25 22:52:00,40.0,40.0,-100.00,SSE,166,0.0,4.0,99,0.00,,,0.04,0.000000,,2013-05-26 05:52:00,
2013-05-25 23:01:00,40.0,40.0,-100.00,SSE,166,0.0,4.0,99,0.00,,,0.04,0.000000,,2013-05-26 06:01:00,
2013-05-25 23:32:00,38.0,38.0,-100.00,SE,138,0.0,3.0,99,0.00,,,0.04,0.000000,,2013-05-26 06:32:00,
2013-05-25 23:42:00,38.0,38.0,-100.00,SE,138,0.0,3.0,99,0.00,,,0.04,0.000000,,2013-05-26 06:42:00,
2013-05-25 23:52:00,38.0,38.0,-100.00,SE,138,0.0,3.0,99,0.00,,,0.04,0.000000,,2013-05-26 06:52:00,